createdAt,value
2023-01-19T00:01:54.678Z,24.84
2023-01-19T00:04:24.627Z,24.80
2023-01-19T00:06:55.049Z,24.80
2023-01-19T00:09:25.088Z,24.77
2023-01-19T00:11:54.772Z,24.77
2023-01-19T00:14:24.675Z,24.76
2023-01-19T00:16:54.628Z,24.73
2023-01-19T00:19:24.917Z,24.72
2023-01-19T00:21:55.272Z,24.68
2023-01-19T00:24:25.339Z,24.68
2023-01-19T00:26:55.513Z,24.66
2023-01-19T00:29:25.882Z,24.66
2023-01-19T00:31:56.087Z,24.63
2023-01-19T00:34:26.273Z,24.66
2023-01-19T00:36:55.942Z,24.63
2023-01-19T00:39:26.049Z,24.55
2023-01-19T00:42:14.467Z,24.52
2023-01-19T00:44:44.782Z,24.56
2023-01-19T00:47:14.279Z,24.55
2023-01-19T00:49:44.697Z,24.53
2023-01-19T00:52:14.881Z,24.51
2023-01-19T00:54:44.816Z,24.48
2023-01-19T00:57:14.644Z,24.51
2023-01-19T00:59:44.720Z,24.51
2023-01-19T01:02:15.020Z,24.45
2023-01-19T01:04:45.337Z,24.47
2023-01-19T01:07:15.053Z,24.47
2023-01-19T01:09:45.065Z,24.49
2023-01-19T01:12:15.194Z,24.48
2023-01-19T01:14:45.481Z,24.45
2023-01-19T01:17:15.571Z,24.48
2023-01-19T01:19:45.815Z,24.45
2023-01-19T01:22:15.856Z,24.43
2023-01-19T01:24:46.153Z,24.38
2023-01-19T01:27:16.452Z,24.33
2023-01-19T01:29:49.614Z,24.36
2023-01-19T01:32:19.875Z,24.38
2023-01-19T01:34:50.055Z,24.36
2023-01-19T01:37:19.724Z,24.35
2023-01-19T01:39:49.622Z,24.35
2023-01-19T01:42:26.839Z,24.35
2023-01-19T01:45:02.238Z,24.35
2023-01-19T01:47:45.665Z,24.33
2023-01-19T01:50:30.354Z,24.32
2023-01-19T01:53:15.805Z,24.33
2023-01-19T01:55:51.330Z,24.36
2023-01-19T01:58:21.530Z,24.43
2023-01-19T02:01:09.696Z,24.43
2023-01-19T02:03:40.133Z,24.48
2023-01-19T02:06:11.774Z,24.51
2023-01-19T02:09:04.230Z,24.49
2023-01-19T02:11:53.579Z,24.48
2023-01-19T02:14:23.846Z,24.47
2023-01-19T02:16:54.228Z,24.48
2023-01-19T02:19:31.881Z,24.45
2023-01-19T02:22:12.983Z,24.42
2023-01-19T02:24:44.036Z,24.40
2023-01-19T02:27:14.970Z,24.39
2023-01-19T02:29:45.418Z,24.32
2023-01-19T02:32:15.806Z,24.33
2023-01-19T02:34:45.991Z,24.29
2023-01-19T02:37:19.876Z,24.28
2023-01-19T02:39:57.829Z,24.26
2023-01-19T02:42:51.609Z,24.21
2023-01-19T02:45:24.166Z,24.21
2023-01-19T02:47:55.037Z,24.17
2023-01-19T02:50:44.873Z,24.17
2023-01-19T02:53:27.053Z,24.21
2023-01-19T02:56:33.467Z,24.22
2023-01-19T02:59:31.504Z,24.11
2023-01-19T03:02:12.359Z,24.09
2023-01-19T03:05:15.166Z,24.12
2023-01-19T03:08:09.596Z,24.09
2023-01-19T03:10:45.595Z,24.14
2023-01-19T03:13:18.102Z,24.09
2023-01-19T03:15:56.728Z,24.11
2023-01-19T03:18:30.735Z,24.07
2023-01-19T03:21:05.680Z,24.07
2023-01-19T03:23:38.756Z,24.05
2023-01-19T03:26:12.437Z,24.00
2023-01-19T03:28:44.355Z,24.04
2023-01-19T03:31:26.437Z,24.04
2023-01-19T03:34:01.001Z,24.00
2023-01-19T03:36:42.801Z,24.01
2023-01-19T03:39:16.491Z,24.01
2023-01-19T03:41:51.578Z,24.02
2023-01-19T03:44:21.762Z,24.00
2023-01-19T03:46:52.026Z,23.94
2023-01-19T03:49:22.418Z,24.01
2023-01-19T03:51:52.990Z,24.08
2023-01-19T03:54:23.279Z,24.08
2023-01-19T03:56:56.520Z,24.08
2023-01-19T03:59:26.624Z,24.15
2023-01-19T04:01:56.601Z,24.18
2023-01-19T04:04:26.804Z,24.21
2023-01-19T04:06:57.005Z,24.12
2023-01-19T04:09:27.029Z,24.12
2023-01-19T04:11:58.448Z,24.12
2023-01-19T04:14:30.083Z,24.12
2023-01-19T04:17:00.390Z,24.14
2023-01-19T04:19:30.610Z,24.17
2023-01-19T04:22:00.947Z,24.24
2023-01-19T04:24:31.986Z,24.25
2023-01-19T04:27:02.029Z,24.26
2023-01-19T04:29:32.200Z,24.30
2023-01-19T04:32:02.441Z,24.28
2023-01-19T04:34:33.149Z,24.24
2023-01-19T04:37:02.905Z,24.29
2023-01-19T04:39:32.942Z,24.29
2023-01-19T04:42:02.781Z,24.32
2023-01-19T04:44:32.650Z,24.30
2023-01-19T04:47:03.224Z,24.21
2023-01-19T04:49:33.335Z,24.18
2023-01-19T04:52:03.202Z,24.21
2023-01-19T04:54:33.816Z,24.15
2023-01-19T04:57:04.141Z,24.22
2023-01-19T04:59:34.354Z,24.22
2023-01-19T05:02:04.045Z,24.24
2023-01-19T05:04:34.515Z,24.24
2023-01-19T05:07:04.649Z,24.26
2023-01-19T05:09:34.727Z,24.25
2023-01-19T05:12:05.072Z,24.30
2023-01-19T05:14:35.305Z,24.30
2023-01-19T05:17:05.658Z,24.29
2023-01-19T05:19:36.011Z,24.24
2023-01-19T05:22:07.706Z,24.22
2023-01-19T05:24:37.868Z,24.19
2023-01-19T05:27:07.519Z,24.21
2023-01-19T05:29:37.545Z,24.30
2023-01-19T05:32:07.899Z,24.35
2023-01-19T05:34:38.290Z,24.38
2023-01-19T05:37:08.613Z,24.35
2023-01-19T05:39:38.874Z,24.30
2023-01-19T05:42:09.049Z,24.29
2023-01-19T05:44:39.028Z,24.30
2023-01-19T05:47:08.954Z,24.29
2023-01-19T05:49:39.988Z,24.22
2023-01-19T05:52:10.287Z,24.19
2023-01-19T05:54:41.561Z,24.19
2023-01-19T05:57:13.008Z,24.22
2023-01-19T05:59:43.213Z,24.19
2023-01-19T06:02:12.887Z,24.21
2023-01-19T06:04:43.084Z,24.24
2023-01-19T06:07:13.453Z,24.24
2023-01-19T06:09:43.581Z,24.26
2023-01-19T06:12:13.320Z,24.25
2023-01-19T06:14:43.156Z,24.22
2023-01-19T06:17:14.585Z,24.24
2023-01-19T06:19:44.814Z,24.22
2023-01-19T06:22:15.111Z,24.24
2023-01-19T06:24:45.361Z,24.19
2023-01-19T06:27:15.543Z,24.17
2023-01-19T06:29:45.205Z,24.15
2023-01-19T06:32:15.345Z,24.17
2023-01-19T06:34:44.968Z,24.14
2023-01-19T06:37:17.457Z,24.11
2023-01-19T06:39:47.730Z,24.08
2023-01-19T06:42:18.047Z,24.05
2023-01-19T06:44:49.261Z,24.04
2023-01-19T06:47:19.485Z,23.98
2023-01-19T06:49:50.202Z,23.98
2023-01-19T06:52:21.658Z,23.96
2023-01-19T06:54:51.850Z,23.97
2023-01-19T06:57:21.639Z,23.93
2023-01-19T06:59:51.557Z,23.93
2023-01-19T07:02:27.486Z,23.91
2023-01-19T07:04:58.867Z,23.93
2023-01-19T07:07:29.471Z,23.90
2023-01-19T07:10:00.620Z,23.90
2023-01-19T07:12:32.694Z,23.81
2023-01-19T07:15:03.171Z,23.78
2023-01-19T07:17:33.458Z,23.77
2023-01-19T07:20:04.266Z,23.73
2023-01-19T07:22:34.549Z,23.77
2023-01-19T07:25:04.666Z,23.75
2023-01-19T07:27:34.962Z,23.75
2023-01-19T07:30:24.588Z,23.71
2023-01-19T07:32:58.789Z,23.68
2023-01-19T07:35:30.874Z,23.63
2023-01-19T07:38:01.233Z,23.60
2023-01-19T07:40:31.418Z,23.60
2023-01-19T07:43:02.141Z,23.61
2023-01-19T07:45:32.475Z,23.61
2023-01-19T07:48:02.662Z,23.58
2023-01-19T07:50:33.141Z,23.60
2023-01-19T07:53:12.970Z,23.58
2023-01-19T07:55:43.163Z,23.57
2023-01-19T07:58:13.085Z,23.60
2023-01-19T08:00:43.218Z,23.63
2023-01-19T08:03:13.677Z,23.61
2023-01-19T08:05:43.938Z,23.64
2023-01-19T08:08:14.734Z,23.60
2023-01-19T08:10:44.918Z,23.63
2023-01-19T08:13:15.419Z,23.61
2023-01-19T08:15:45.703Z,23.64
2023-01-19T08:18:16.886Z,23.58
2023-01-19T08:20:47.196Z,23.61
2023-01-19T08:23:19.178Z,23.60
2023-01-19T08:25:49.403Z,23.61
2023-01-19T08:28:19.450Z,23.64
2023-01-19T08:30:55.178Z,23.63
2023-01-19T08:33:44.308Z,23.67
2023-01-19T08:36:14.508Z,23.67
2023-01-19T08:38:46.970Z,23.71
2023-01-19T08:41:20.257Z,23.74
2023-01-19T08:43:50.917Z,23.70
2023-01-19T08:46:22.993Z,23.67
2023-01-19T08:48:53.118Z,23.68
2023-01-19T08:51:23.772Z,23.71
2023-01-19T08:53:53.948Z,23.71
2023-01-19T08:56:25.330Z,23.73
2023-01-19T08:59:08.110Z,23.73
2023-01-19T09:01:39.673Z,23.74
2023-01-19T09:04:10.072Z,23.75
2023-01-19T09:06:40.324Z,23.75
2023-01-19T09:09:10.194Z,23.80
2023-01-19T09:11:40.246Z,23.82
2023-01-19T09:14:09.920Z,23.80
2023-01-19T09:16:40.060Z,23.81
2023-01-19T09:19:10.434Z,23.91
2023-01-19T09:21:40.581Z,23.97
2023-01-19T09:24:10.475Z,24.07
2023-01-19T09:26:41.979Z,24.17
2023-01-19T09:29:12.359Z,24.25
2023-01-19T09:31:42.263Z,24.29
2023-01-19T09:34:13.883Z,24.32
2023-01-19T09:36:44.152Z,24.38
2023-01-19T09:39:14.117Z,24.48
2023-01-19T09:41:46.837Z,24.56
2023-01-19T09:44:27.572Z,24.65
2023-01-19T09:46:57.823Z,24.73
2023-01-19T09:49:42.777Z,24.86
2023-01-19T09:52:15.727Z,24.94
2023-01-19T09:54:55.267Z,25.03
2023-01-19T09:57:29.343Z,25.11
2023-01-19T10:00:00.662Z,25.17
2023-01-19T10:02:57.745Z,25.11
2023-01-19T10:05:59.399Z,25.13
2023-01-19T10:08:40.736Z,25.19
2023-01-19T10:11:51.278Z,25.02
2023-01-19T10:14:47.625Z,24.86
2023-01-19T10:17:44.385Z,24.80
2023-01-19T10:20:27.334Z,24.82
2023-01-19T10:23:00.690Z,24.80
2023-01-19T10:25:31.998Z,24.90
2023-01-19T10:28:02.892Z,24.96
2023-01-19T10:30:33.187Z,25.03
2023-01-19T10:33:03.796Z,25.04
2023-01-19T10:35:34.159Z,25.16
2023-01-19T10:38:04.848Z,25.35
2023-01-19T10:40:56.965Z,25.54
2023-01-19T10:43:47.419Z,25.62
2023-01-19T10:46:23.548Z,25.65
2023-01-19T10:48:55.427Z,25.61
2023-01-19T10:51:26.153Z,25.77
2023-01-19T10:54:04.769Z,25.77
2023-01-19T10:56:38.780Z,25.71
2023-01-19T10:59:28.976Z,25.62
2023-01-19T11:02:29.227Z,25.60
2023-01-19T11:05:20.299Z,25.47
2023-01-19T11:07:50.622Z,25.60
2023-01-19T11:10:25.706Z,25.84
2023-01-19T11:13:17.189Z,26.28
2023-01-19T11:15:55.528Z,26.15
2023-01-19T11:18:31.935Z,26.01
2023-01-19T11:21:08.358Z,25.95
2023-01-19T11:23:44.593Z,25.86
2023-01-19T11:26:25.736Z,25.88
2023-01-19T11:28:58.164Z,26.05
2023-01-19T11:31:31.175Z,26.18
2023-01-19T11:34:07.017Z,26.44
2023-01-19T11:36:38.282Z,26.67
2023-01-19T11:39:29.362Z,27.10
2023-01-19T11:42:05.980Z,27.14
2023-01-19T11:44:46.122Z,27.45
2023-01-19T11:47:29.194Z,27.70
2023-01-19T11:50:15.463Z,27.90
2023-01-19T11:53:11.469Z,28.03
2023-01-19T11:55:55.369Z,28.27
2023-01-19T11:58:27.308Z,28.30
2023-01-19T12:01:07.924Z,27.88
2023-01-19T12:03:49.419Z,27.65
2023-01-19T12:06:25.481Z,28.00
2023-01-19T12:09:00.209Z,28.48
2023-01-19T12:11:41.719Z,28.74
2023-01-19T12:14:21.574Z,29.05
2023-01-19T12:16:56.355Z,29.13
2023-01-19T12:19:55.131Z,28.58
2023-01-19T12:22:29.970Z,28.85
2023-01-19T12:25:14.479Z,28.41
2023-01-19T12:27:47.568Z,28.81
2023-01-19T12:30:31.230Z,28.84
2023-01-19T12:33:41.359Z,28.84
2023-01-19T12:36:36.773Z,28.68
2023-01-19T12:39:19.284Z,28.47
2023-01-19T12:41:50.029Z,28.17
2023-01-19T12:44:26.691Z,28.39
2023-01-19T12:47:09.252Z,28.28
2023-01-19T12:49:50.667Z,28.53
2023-01-19T12:52:40.516Z,28.87
2023-01-19T12:55:16.741Z,28.92
2023-01-19T12:58:08.670Z,29.54
2023-01-19T13:00:42.595Z,29.50
2023-01-19T13:03:18.577Z,29.43
2023-01-19T13:05:58.998Z,28.81
2023-01-19T13:08:32.298Z,28.61
2023-01-19T13:11:11.477Z,28.27
2023-01-19T13:14:07.607Z,28.99
2023-01-19T13:16:37.754Z,29.39
2023-01-19T13:19:07.707Z,29.60
2023-01-19T13:21:47.285Z,29.60
2023-01-19T13:24:24.657Z,29.66
2023-01-19T13:27:01.623Z,29.84
2023-01-19T13:29:36.919Z,30.18
2023-01-19T13:32:16.989Z,29.88
2023-01-19T13:34:53.873Z,30.23
2023-01-19T13:37:28.588Z,29.90
2023-01-19T13:39:59.460Z,30.04
2023-01-19T13:42:32.767Z,30.01
2023-01-19T13:45:08.752Z,29.93
2023-01-19T13:47:47.273Z,29.98
2023-01-19T13:50:26.682Z,29.91
2023-01-19T13:52:58.134Z,30.04
2023-01-19T13:55:30.876Z,30.54
2023-01-19T13:58:01.037Z,30.86
2023-01-19T14:00:32.488Z,31.09
2023-01-19T14:03:15.185Z,31.29
2023-01-19T14:05:46.233Z,30.87
2023-01-19T14:08:19.323Z,30.76
2023-01-19T14:10:57.418Z,31.22
2023-01-19T14:13:32.973Z,30.64
2023-01-19T14:16:25.043Z,30.54
2023-01-19T14:19:03.862Z,30.51
2023-01-19T14:21:43.508Z,30.76
2023-01-19T14:24:22.744Z,30.46
2023-01-19T14:26:55.891Z,30.56
2023-01-19T14:29:33.333Z,30.15
2023-01-19T14:32:15.022Z,30.29
2023-01-19T14:34:55.093Z,29.88
2023-01-19T14:37:26.912Z,29.98
2023-01-19T14:45:17.404Z,30.18
2023-01-19T14:45:53.853Z,30.61
2023-01-19T14:48:24.136Z,31.22
2023-01-19T14:51:04.045Z,31.34
2023-01-19T14:53:39.503Z,30.82
2023-01-19T14:56:09.857Z,30.65
2023-01-19T14:58:40.214Z,30.65
2023-01-19T15:01:11.156Z,30.97
2023-01-19T15:03:45.667Z,30.45
2023-01-19T15:06:18.751Z,30.48
2023-01-19T15:08:51.217Z,31.23
2023-01-19T15:11:33.444Z,30.72
2023-01-19T15:14:04.690Z,30.41
2023-01-19T15:16:36.341Z,31.44
2023-01-19T15:19:06.578Z,30.80
2023-01-19T15:21:37.058Z,30.69
2023-01-19T15:24:07.421Z,31.22
2023-01-19T15:26:39.168Z,31.77
2023-01-19T15:29:27.031Z,31.64
2023-01-19T15:31:57.584Z,31.12
2023-01-19T15:34:27.874Z,30.74
2023-01-19T15:36:58.143Z,30.55
2023-01-19T15:39:28.406Z,30.86
2023-01-19T15:41:58.681Z,30.58
2023-01-19T15:44:28.962Z,30.52
2023-01-19T15:46:59.896Z,30.74
2023-01-19T15:49:31.997Z,30.97
2023-01-19T15:52:02.377Z,31.95
2023-01-19T15:54:32.658Z,32.42
2023-01-19T15:57:03.009Z,33.34
2023-01-19T15:59:34.474Z,33.81
2023-01-19T16:02:05.152Z,33.64
2023-01-19T16:04:35.372Z,33.68
2023-01-19T16:07:05.693Z,33.94
2023-01-19T16:09:35.927Z,34.13
2023-01-19T16:12:06.268Z,33.27
2023-01-19T16:14:36.489Z,33.67
2023-01-19T16:17:07.066Z,33.55
2023-01-19T16:19:37.248Z,33.30
2023-01-19T16:22:07.353Z,33.24
2023-01-19T16:24:37.588Z,33.27
2023-01-19T16:27:10.179Z,33.11
2023-01-19T16:29:40.347Z,33.30
2023-01-19T16:32:09.785Z,33.24
2023-01-19T16:34:39.657Z,32.73
2023-01-19T16:37:09.708Z,32.99
2023-01-19T16:39:39.915Z,33.64
2023-01-19T16:42:10.145Z,33.62
2023-01-19T16:44:40.415Z,33.59
2023-01-19T16:47:10.565Z,33.50
2023-01-19T16:49:40.939Z,33.68
2023-01-19T16:52:11.410Z,33.07
2023-01-19T16:54:44.373Z,32.29
2023-01-19T16:57:14.805Z,32.97
2023-01-19T16:59:46.371Z,32.56
2023-01-19T17:02:16.615Z,32.11
2023-01-19T17:04:46.853Z,32.02
2023-01-19T17:07:18.974Z,32.18
2023-01-19T17:09:49.495Z,32.42
2023-01-19T17:12:20.010Z,32.46
2023-01-19T17:14:50.263Z,32.83
2023-01-19T17:17:20.498Z,32.93
2023-01-19T17:19:50.761Z,33.04
2023-01-19T17:22:21.089Z,32.57
2023-01-19T17:24:51.326Z,31.74
2023-01-19T17:27:21.702Z,32.26
2023-01-19T17:30:12.365Z,32.66
2023-01-19T17:32:44.037Z,32.96
2023-01-19T17:35:15.130Z,33.00
2023-01-19T17:37:45.357Z,33.16
2023-01-19T17:40:15.535Z,33.07
2023-01-19T17:42:45.731Z,32.67
2023-01-19T17:45:16.061Z,33.14
2023-01-19T17:47:46.317Z,33.33
2023-01-19T17:50:16.798Z,33.20
2023-01-19T17:52:47.082Z,33.27
2023-01-19T17:55:17.726Z,33.04
2023-01-19T17:57:48.036Z,33.10
2023-01-19T18:00:19.974Z,32.15
2023-01-19T18:02:53.760Z,31.89
2023-01-19T18:05:25.293Z,32.16
2023-01-19T18:07:55.542Z,32.46
2023-01-19T18:10:25.967Z,32.62
2023-01-19T18:12:56.316Z,32.75
2023-01-19T18:15:26.615Z,32.49
2023-01-19T18:17:56.907Z,32.59
2023-01-19T18:20:26.930Z,32.73
2023-01-19T18:22:57.138Z,32.63
2023-01-19T18:25:27.458Z,32.82
2023-01-19T18:27:57.778Z,32.79
2023-01-19T18:30:28.107Z,33.00
2023-01-19T18:32:59.731Z,32.96
2023-01-19T18:35:30.183Z,32.63
2023-01-19T18:38:00.455Z,32.40
2023-01-19T18:40:30.731Z,32.57
2023-01-19T18:43:01.018Z,32.67
2023-01-19T18:45:31.347Z,32.49
2023-01-19T18:48:03.234Z,32.35
2023-01-19T18:50:33.823Z,32.09
2023-01-19T18:53:04.133Z,31.82
2023-01-19T18:55:34.328Z,31.77
2023-01-19T18:58:06.429Z,32.22
2023-01-19T19:00:36.574Z,32.01
2023-01-19T19:03:11.502Z,31.67
2023-01-19T19:05:41.877Z,31.46
2023-01-19T19:08:12.198Z,31.26
2023-01-19T19:10:43.299Z,31.30
2023-01-19T19:13:18.450Z,31.47
2023-01-19T19:15:49.360Z,31.37
2023-01-19T19:18:19.785Z,31.15
2023-01-19T19:20:50.042Z,31.15
2023-01-19T19:23:20.562Z,31.23
2023-01-19T19:25:50.547Z,31.47
2023-01-19T19:28:20.937Z,31.68
2023-01-19T19:31:13.675Z,31.47
2023-01-19T19:33:44.698Z,31.41
2023-01-19T19:36:14.983Z,31.41
2023-01-19T19:38:47.706Z,30.80
2023-01-19T19:41:23.064Z,30.27
2023-01-19T19:43:53.240Z,30.29
2023-01-19T19:46:25.535Z,30.83
2023-01-19T19:48:56.474Z,30.51
2023-01-19T19:51:28.702Z,30.38
2023-01-19T19:54:01.044Z,30.75
2023-01-19T19:56:33.483Z,30.86
2023-01-19T19:59:03.781Z,30.75
2023-01-19T20:01:34.707Z,30.45
2023-01-19T20:04:13.559Z,30.27
2023-01-19T20:06:45.788Z,30.34
2023-01-19T20:09:17.746Z,30.23
2023-01-19T20:11:50.240Z,30.05
2023-01-19T20:14:20.467Z,29.85
2023-01-19T20:16:51.004Z,29.90
2023-01-19T20:19:21.198Z,29.76
2023-01-19T20:21:51.384Z,29.69
2023-01-19T20:24:22.700Z,29.53
2023-01-19T20:26:55.935Z,29.56
2023-01-19T20:29:26.162Z,29.43
2023-01-19T20:31:57.867Z,29.42
2023-01-19T20:34:33.388Z,29.52
2023-01-19T20:37:05.928Z,29.59
2023-01-19T20:39:38.034Z,29.56
2023-01-19T20:42:12.353Z,29.57
2023-01-19T20:44:42.725Z,29.72
2023-01-19T20:47:13.066Z,29.62
2023-01-19T20:49:43.862Z,29.53
2023-01-19T20:52:14.126Z,29.47
2023-01-19T20:54:44.266Z,29.47
2023-01-19T20:57:14.473Z,29.53
2023-01-19T20:59:44.721Z,29.52
2023-01-19T21:02:16.157Z,29.37
2023-01-19T21:04:46.474Z,29.43
2023-01-19T21:07:16.823Z,29.37
2023-01-19T21:09:47.019Z,29.20
2023-01-19T21:12:17.215Z,29.20
2023-01-19T21:14:47.530Z,29.16
2023-01-19T21:17:17.758Z,28.95
2023-01-19T21:19:47.937Z,28.91
2023-01-19T21:22:18.125Z,28.91
2023-01-19T21:24:49.096Z,28.88
2023-01-19T21:27:19.495Z,28.81
2023-01-19T21:29:50.154Z,28.69
2023-01-19T21:32:20.329Z,28.72
2023-01-19T21:34:50.749Z,28.62
2023-01-19T21:37:20.910Z,28.50
2023-01-19T21:39:51.038Z,28.34
2023-01-19T21:42:21.213Z,28.23
2023-01-19T21:44:52.037Z,28.02
2023-01-19T21:47:22.165Z,27.96
2023-01-19T21:49:51.675Z,27.94
2023-01-19T21:52:21.545Z,27.93
2023-01-19T21:54:50.901Z,27.90
2023-01-19T21:57:20.990Z,27.83
2023-01-19T21:59:51.475Z,27.73
2023-01-19T22:02:37.029Z,27.67
2023-01-19T22:05:07.959Z,27.67
2023-01-19T22:07:38.417Z,27.56
2023-01-19T22:10:10.473Z,27.51
2023-01-19T22:12:44.485Z,27.32
2023-01-19T22:15:15.057Z,27.34
2023-01-19T22:17:45.342Z,27.20
2023-01-19T22:20:15.759Z,27.10
2023-01-19T22:22:46.126Z,26.92
2023-01-19T22:25:17.671Z,26.80
2023-01-19T22:27:47.911Z,26.76
2023-01-19T22:30:18.525Z,26.67
2023-01-19T22:32:48.761Z,26.53
2023-01-19T22:35:19.190Z,26.57
2023-01-19T22:37:49.692Z,26.51
2023-01-19T22:40:20.039Z,26.44
2023-01-19T22:42:50.799Z,26.32
2023-01-19T22:45:21.222Z,26.30
2023-01-19T22:47:51.424Z,26.25
2023-01-19T22:50:20.862Z,26.23
2023-01-19T22:52:50.910Z,26.13
2023-01-19T22:55:21.105Z,26.10
2023-01-19T22:57:51.295Z,26.08
2023-01-19T23:00:22.237Z,26.06
2023-01-19T23:02:52.360Z,26.06
2023-01-19T23:05:22.490Z,25.99
2023-01-19T23:07:52.810Z,25.92
2023-01-19T23:10:23.033Z,25.85
2023-01-19T23:12:54.443Z,25.81
2023-01-19T23:15:24.693Z,25.82
2023-01-19T23:17:54.927Z,25.75
2023-01-19T23:20:25.071Z,25.74
2023-01-19T23:22:55.266Z,25.68
2023-01-19T23:25:25.577Z,25.58
2023-01-19T23:27:55.798Z,25.55
2023-01-19T23:30:25.488Z,25.57
2023-01-19T23:32:55.308Z,25.47
2023-01-19T23:35:25.565Z,25.42
2023-01-19T23:37:56.403Z,25.38
2023-01-19T23:40:26.672Z,25.33
2023-01-19T23:42:56.433Z,25.35
2023-01-19T23:45:26.408Z,25.31
2023-01-19T23:47:56.643Z,25.26
2023-01-19T23:50:27.080Z,25.23
2023-01-19T23:52:57.331Z,25.21
2023-01-19T23:55:29.422Z,25.16
2023-01-19T23:57:59.894Z,25.11
